Time;durP1;ratioP1;P1;durP2;ratioP2;P2;SDS_P1;SDS_P2;PMS_P1;PMS_P2;Temp;Humidity;BMP_temperature;BMP_pressure;BME280_temperature;BME280_humidity;BME280_pressure;Samples;Min_cycle;Max_cycle;Signal;HPM_P1;HPM_P2
2022/12/19 00:00:19;;;;;;;42.45;20.50;;;0.20;99.90;;;;;;4988808;28;20050;-77
2022/12/19 00:02:44;;;;;;;40.35;20.27;;;0.50;99.90;;;;;;4988273;28;20042;-78
2022/12/19 00:05:10;;;;;;;44.30;20.50;;;0.20;99.90;;;;;;4988438;28;20417;-73
2022/12/19 00:07:35;;;;;;;42.05;21.33;;;0.30;99.90;;;;;;4988861;28;20142;-76
2022/12/19 00:10:01;;;;;;;37.28;19.65;;;0.30;99.90;;;;;;4987407;28;20401;-77
2022/12/19 00:12:27;;;;;;;40.10;21.05;;;0.30;99.90;;;;;;4988431;28;20046;-73
2022/12/19 00:14:52;;;;;;;39.20;20.67;;;0.30;99.90;;;;;;4986841;28;20046;-73
2022/12/19 00:17:18;;;;;;;40.10;20.38;;;0.30;99.90;;;;;;4988144;28;20501;-73
2022/12/19 00:19:43;;;;;;;40.95;19.80;;;0.30;99.90;;;;;;4986879;28;20058;-75
2022/12/19 00:22:09;;;;;;;36.53;20.13;;;0.40;99.90;;;;;;4988740;28;20096;-74
2022/12/19 00:24:34;;;;;;;38.10;19.25;;;0.40;99.90;;;;;;4986850;28;20050;-76
2022/12/19 00:27:00;;;;;;;40.65;20.55;;;0.40;99.90;;;;;;4988623;28;20481;-75
2022/12/19 00:29:26;;;;;;;38.53;20.30;;;0.40;99.90;;;;;;4986832;28;20054;-75
2022/12/19 00:31:52;;;;;;;34.78;18.75;;;0.40;99.90;;;;;;4988664;28;20068;-74
2022/12/19 00:34:17;;;;;;;38.15;19.15;;;0.50;99.90;;;;;;4988484;28;20041;-75
2022/12/19 00:36:43;;;;;;;42.88;20.20;;;0.50;99.90;;;;;;4987055;28;20420;-73
2022/12/19 00:39:10;;;;;;;41.70;20.77;;;0.50;99.90;;;;;;4988221;28;20084;-72
2022/12/19 00:41:38;;;;;;;38.97;19.33;;;0.50;99.90;;;;;;4988311;28;20129;-74
2022/12/19 00:44:06;;;;;;;42.45;20.88;;;0.50;99.90;;;;;;4986554;28;20046;-74
2022/12/19 00:46:33;;;;;;;41.35;21.60;;;0.50;99.90;;;;;;4986605;28;20056;-73
2022/12/19 00:49:00;;;;;;;44.40;20.92;;;0.60;99.90;;;;;;4987629;28;20477;-72
2022/12/19 00:51:28;;;;;;;42.13;20.85;;;0.60;99.90;;;;;;4988029;28;20167;-72
2022/12/19 00:53:55;;;;;;;43.38;20.83;;;0.50;99.90;;;;;;4988163;28;20050;-75
2022/12/19 00:56:23;;;;;;;40.60;21.38;;;0.60;99.90;;;;;;4986561;28;20046;-74
2022/12/19 00:58:49;;;;;;;37.22;20.13;;;0.60;99.90;;;;;;4986755;28;20405;-77
2022/12/19 01:01:18;;;;;;;39.92;19.02;;;1.60;99.90;;;;;;4988306;28;20038;-73
2022/12/19 01:03:44;;;;;;;40.53;21.00;;;0.60;99.90;;;;;;4987828;28;20042;-74
2022/12/19 01:06:10;;;;;;;38.53;18.45;;;0.60;99.90;;;;;;4987796;28;20390;-72
2022/12/19 01:08:36;;;;;;;37.97;20.33;;;0.70;99.90;;;;;;4987653;28;20065;-76
2022/12/19 01:11:01;;;;;;;38.20;20.25;;;0.60;99.90;;;;;;4987997;28;20153;-78
2022/12/19 01:13:29;;;;;;;43.13;21.83;;;0.70;99.90;;;;;;4988101;28;20455;-78
2022/12/19 01:16:00;;;;;;;39.08;20.23;;;0.70;99.90;;;;;;4988048;28;20835;-73
2022/12/19 01:18:25;;;;;;;42.03;19.70;;;0.80;99.90;;;;;;4987458;28;20090;-78
2022/12/19 01:20:51;;;;;;;42.78;20.67;;;1.30;99.90;;;;;;4986689;28;20509;-78
2022/12/19 01:23:17;;;;;;;43.45;20.13;;;0.80;99.90;;;;;;4970370;28;20524;-79
2022/12/19 01:25:51;;;;;;;44.50;20.85;;;0.80;99.90;;;;;;4987692;28;20082;-74
2022/12/19 01:28:16;;;;;;;36.60;20.00;;;0.80;99.90;;;;;;4987394;28;20042;-76
2022/12/19 01:30:42;;;;;;;39.35;20.30;;;0.90;99.90;;;;;;4987404;28;20493;-76
2022/12/19 01:33:11;;;;;;;39.78;19.75;;;0.90;99.90;;;;;;4987532;28;20055;-74
2022/12/19 01:35:37;;;;;;;38.63;20.05;;;0.90;99.90;;;;;;4987467;28;20435;-76
2022/12/19 01:38:03;;;;;;;40.60;21.17;;;0.90;99.90;;;;;;4986165;28;20100;-77
2022/12/19 01:40:28;;;;;;;43.83;20.75;;;0.90;99.90;;;;;;4985884;28;20085;-75
2022/12/19 01:42:54;;;;;;;42.85;21.77;;;1.00;99.90;;;;;;4987873;28;20046;-73
2022/12/19 01:45:35;;;;;;;42.13;20.75;;;1.00;99.90;;;;;;5048579;28;20048;-76
2022/12/19 01:48:09;;;;;;;38.58;19.88;;;1.00;99.90;;;;;;5088495;28;20043;-75
2022/12/19 01:50:57;;;;;;;39.08;19.92;;;1.00;99.90;;;;;;5016113;28;20038;-75
2022/12/19 01:53:27;;;;;;;38.55;19.85;;;1.00;99.90;;;;;;4987342;28;20439;-74
2022/12/19 01:55:54;;;;;;;41.13;20.60;;;1.00;99.90;;;;;;4987345;28;20741;-74
2022/12/19 01:58:20;;;;;;;41.28;20.40;;;1.10;99.90;;;;;;4985918;28;20062;-76
2022/12/19 02:00:46;;;;;;;40.88;21.05;;;1.10;99.90;;;;;;4987878;28;20050;-73
2022/12/19 02:03:26;;;;;;;39.97;20.75;;;1.10;99.90;;;;;;4989075;28;20107;-73
2022/12/19 02:05:52;;;;;;;43.17;21.27;;;1.20;99.90;;;;;;4990611;28;20142;-76
2022/12/19 02:08:19;;;;;;;42.85;22.13;;;1.20;99.90;;;;;;4988886;28;20060;-73
2022/12/19 02:10:45;;;;;;;45.17;21.50;;;1.10;99.90;;;;;;4990527;28;20054;-76
2022/12/19 02:13:11;;;;;;;46.42;20.83;;;1.10;99.90;;;;;;5022187;28;20436;-78
2022/12/19 02:16:05;;;;;;;45.00;21.80;;;1.10;99.90;;;;;;4989199;28;20099;-81
2022/12/19 02:18:42;;;;;;;44.08;21.77;;;1.10;99.90;;;;;;4989986;28;20068;-75
2022/12/19 02:21:38;;;;;;;42.30;21.85;;;1.10;99.90;;;;;;4990097;28;20413;-75
2022/12/19 02:24:06;;;;;;;43.33;21.08;;;1.10;99.90;;;;;;4972767;28;20050;-73
2022/12/19 02:26:57;;;;;;;41.63;21.95;;;1.10;99.90;;;;;;4990574;28;20050;-73
2022/12/19 02:29:43;;;;;;;44.88;21.08;;;1.10;99.90;;;;;;4989993;28;20099;-74
2022/12/19 02:32:33;;;;;;;44.40;20.95;;;1.10;99.90;;;;;;4989821;28;20124;-75
2022/12/19 02:35:13;;;;;;;44.53;21.77;;;2.40;99.90;;;;;;4988991;28;20100;-77
2022/12/19 02:37:46;;;;;;;43.88;20.83;;;1.10;99.90;;;;;;4990150;28;20082;-77
2022/12/19 02:40:32;;;;;;;44.45;22.00;;;1.20;99.90;;;;;;4988457;28;20050;-74
2022/12/19 02:43:01;;;;;;;43.63;22.42;;;1.20;99.90;;;;;;4990294;28;20402;-75
2022/12/19 02:45:30;;;;;;;46.83;22.58;;;1.20;99.90;;;;;;4988474;28;20157;-75
2022/12/19 02:47:59;;;;;;;43.30;22.48;;;1.20;99.90;;;;;;4988656;28;20050;-76
2022/12/19 02:50:24;;;;;;;44.20;22.35;;;1.20;99.90;;;;;;4988577;28;20057;-76
2022/12/19 02:52:50;;;;;;;43.70;22.63;;;1.20;99.90;;;;;;4989964;28;20234;-75
2022/12/19 02:55:20;;;;;;;49.25;24.45;;;1.20;99.90;;;;;;4988802;28;20086;-73
2022/12/19 02:58:12;;;;;;;49.30;22.45;;;1.20;99.90;;;;;;4989945;28;20050;-75
2022/12/19 03:00:58;;;;;;;42.97;22.08;;;1.20;99.90;;;;;;4989274;28;20046;-73
2022/12/19 03:03:49;;;;;;;39.53;21.45;;;1.20;99.90;;;;;;4980061;28;20051;-74
2022/12/19 03:06:47;;;;;;;50.90;23.35;;;1.30;99.90;;;;;;4988260;28;20203;-73
2022/12/19 03:09:19;;;;;;;44.10;22.42;;;1.30;99.90;;;;;;5004107;28;20115;-76
2022/12/19 03:11:47;;;;;;;42.70;22.15;;;1.30;99.90;;;;;;4986448;28;20078;-74
2022/12/19 03:14:19;;;;;;;46.80;23.58;;;1.30;99.90;;;;;;5002234;28;20051;-78
2022/12/19 03:16:45;;;;;;;44.30;22.30;;;1.30;99.90;;;;;;4988810;28;20046;-76
2022/12/19 03:19:13;;;;;;;41.70;21.25;;;1.40;99.90;;;;;;4987103;28;20066;-74
2022/12/19 03:21:47;;;;;;;48.60;23.70;;;1.40;99.90;;;;;;4989086;28;20057;-77
2022/12/19 03:24:14;;;;;;;44.17;22.30;;;1.40;99.90;;;;;;4988795;28;20054;-73
2022/12/19 03:26:55;;;;;;;44.88;23.58;;;1.40;99.90;;;;;;4989213;28;20047;-75
2022/12/19 03:29:34;;;;;;;49.65;23.88;;;1.40;99.90;;;;;;4987667;28;20115;-75
2022/12/19 03:32:04;;;;;;;51.80;25.30;;;1.40;99.90;;;;;;4987816;28;20046;-73
2022/12/19 03:34:38;;;;;;;49.15;23.17;;;1.40;99.90;;;;;;4989522;28;20065;-74
2022/12/19 03:37:09;;;;;;;50.07;25.40;;;1.50;99.90;;;;;;4987771;28;20073;-72
2022/12/19 03:39:36;;;;;;;53.03;25.67;;;1.50;99.90;;;;;;4972436;28;20374;-76
2022/12/19 03:44:50;;;;;;;49.00;25.27;;;1.50;99.90;;;;;;4989255;28;20050;-74
2022/12/19 03:47:33;;;;;;;47.65;24.85;;;1.60;99.90;;;;;;5002800;28;20493;-73
2022/12/19 03:49:59;;;;;;;55.10;25.80;;;1.60;99.90;;;;;;4969536;28;20043;-74
2022/12/19 03:52:28;;;;;;;52.40;24.73;;;1.60;99.90;;;;;;4969650;28;20398;-73
2022/12/19 03:55:03;;;;;;;54.28;27.92;;;1.70;99.90;;;;;;4969496;28;20051;-77
2022/12/19 03:57:34;;;;;;;;;;;1.70;99.90;;;;;;4969885;28;20054;-74
2022/12/19 04:00:13;;;;;;;48.30;24.30;;;1.70;99.90;;;;;;5001749;28;19923;-73
2022/12/19 04:02:43;;;;;;;50.05;24.95;;;1.80;99.90;;;;;;4969365;28;20672;-74
2022/12/19 04:05:13;;;;;;;54.75;26.23;;;2.50;99.90;;;;;;4969914;28;20121;-74
2022/12/19 04:07:40;;;;;;;57.58;27.02;;;1.80;99.90;;;;;;4979738;28;20054;-81
2022/12/19 04:10:09;;;;;;;55.17;27.00;;;1.80;99.90;;;;;;4987256;28;20057;-74
2022/12/19 04:12:44;;;;;;;60.03;28.15;;;1.80;99.90;;;;;;5019906;28;20058;-73
2022/12/19 04:15:10;;;;;;;59.05;27.90;;;1.80;99.90;;;;;;4988564;28;20493;-74
2022/12/19 04:17:48;;;;;;;62.08;29.92;;;1.80;99.90;;;;;;4988363;28;20054;-73
2022/12/19 04:20:17;;;;;;;59.33;28.33;;;1.90;99.90;;;;;;4986869;28;20096;-75
2022/12/19 04:23:05;;;;;;;55.40;27.25;;;1.90;99.90;;;;;;4987653;28;20050;-76
2022/12/19 04:25:37;;;;;;;53.65;26.33;;;1.90;99.90;;;;;;4988435;28;20058;-73
2022/12/19 04:28:09;;;;;;;55.58;26.75;;;2.00;99.90;;;;;;4986786;28;20517;-73
2022/12/19 04:30:37;;;;;;;56.13;26.17;;;2.00;99.90;;;;;;4987111;28;20473;-75
2022/12/19 04:33:03;;;;;;;53.05;27.10;;;2.00;99.90;;;;;;4987942;28;20103;-77
2022/12/19 04:35:29;;;;;;;54.45;26.38;;;2.00;99.90;;;;;;4988389;28;20489;-80
2022/12/19 04:37:55;;;;;;;57.28;27.50;;;2.10;99.90;;;;;;4988522;28;20084;-76
2022/12/19 04:40:20;;;;;;;57.47;26.45;;;2.10;99.90;;;;;;4987887;28;20046;-77
2022/12/19 04:42:46;;;;;;;56.95;27.23;;;2.10;99.90;;;;;;4988240;28;20046;-73
2022/12/19 04:45:12;;;;;;;60.95;28.13;;;2.10;99.90;;;;;;5019765;28;20058;-73
2022/12/19 04:47:37;;;;;;;52.03;26.25;;;2.20;99.90;;;;;;4988505;28;20050;-76
2022/12/19 04:50:04;;;;;;;52.97;26.30;;;2.20;99.90;;;;;;4988259;28;20096;-75
2022/12/19 04:52:29;;;;;;;54.35;27.13;;;2.20;99.90;;;;;;4986589;28;20088;-76
2022/12/19 04:54:55;;;;;;;58.17;28.52;;;2.20;99.90;;;;;;5019351;28;20054;-75
2022/12/19 04:57:21;;;;;;;55.83;26.75;;;2.30;99.90;;;;;;5019411;28;20141;-73
2022/12/19 04:59:46;;;;;;;56.75;28.08;;;2.20;99.90;;;;;;4988012;28;20506;-73
2022/12/19 05:02:12;;;;;;;59.72;29.02;;;2.30;99.90;;;;;;4986355;28;20511;-73
2022/12/19 05:04:37;;;;;;;56.78;28.45;;;2.40;99.90;;;;;;4986582;28;20096;-74
2022/12/19 05:07:03;;;;;;;59.60;27.73;;;2.30;99.90;;;;;;4987628;28;20043;-75
2022/12/19 05:09:29;;;;;;;57.95;26.52;;;2.40;99.90;;;;;;5014816;28;20054;-76
2022/12/19 05:11:54;;;;;;;59.15;27.15;;;2.40;99.90;;;;;;4968250;28;20046;-75
2022/12/19 05:14:20;;;;;;;60.95;27.50;;;2.40;99.90;;;;;;4985949;28;20046;-74
2022/12/19 05:16:45;;;;;;;58.13;28.67;;;2.40;99.90;;;;;;4986895;28;20057;-75
2022/12/19 05:19:11;;;;;;;46.92;20.77;;;2.40;99.90;;;;;;4987716;28;20050;-74
2022/12/19 05:21:37;;;;;;;53.92;25.67;;;2.50;99.90;;;;;;4987869;28;20072;-75
2022/12/19 05:24:02;;;;;;;55.55;25.88;;;2.50;99.90;;;;;;4985915;28;20070;-75
2022/12/19 05:26:28;;;;;;;56.53;26.88;;;2.50;99.90;;;;;;4986433;28;20049;-73
2022/12/19 05:28:54;;;;;;;51.25;25.65;;;2.60;99.90;;;;;;4986337;28;20061;-75
2022/12/19 05:31:20;;;;;;;55.80;26.40;;;2.60;99.90;;;;;;4987647;28;20048;-72
2022/12/19 05:33:46;;;;;;;47.92;25.60;;;2.60;99.90;;;;;;4987385;28;20089;-77
2022/12/19 05:36:14;;;;;;;49.90;25.38;;;2.70;99.90;;;;;;4989802;28;20127;-73
2022/12/19 05:38:40;;;;;;;48.65;25.25;;;2.70;99.90;;;;;;4989374;28;20042;-84
2022/12/19 05:41:11;;;;;;;51.63;23.95;;;2.70;99.90;;;;;;4990931;28;20157;-73
2022/12/19 05:43:37;;;;;;;46.88;23.55;;;2.70;99.90;;;;;;4991169;28;20046;-78
2022/12/19 05:46:06;;;;;;;49.08;23.90;;;2.80;99.90;;;;;;4991018;28;20469;-74
2022/12/19 05:48:31;;;;;;;45.83;23.83;;;2.80;99.90;;;;;;4990646;28;20085;-79
2022/12/19 05:50:57;;;;;;;48.47;22.90;;;2.80;99.90;;;;;;4989865;28;20074;-74
2022/12/19 05:53:23;;;;;;;45.40;21.85;;;2.90;99.90;;;;;;4989668;28;20066;-73
2022/12/19 05:55:49;;;;;;;43.33;21.90;;;2.90;99.90;;;;;;4989773;28;20054;-77
2022/12/19 05:58:15;;;;;;;42.10;21.80;;;2.90;99.90;;;;;;4989448;28;20046;-75
2022/12/19 06:00:41;;;;;;;41.78;20.17;;;3.00;99.90;;;;;;4990814;28;20408;-76
2022/12/19 06:03:06;;;;;;;36.03;19.52;;;3.00;99.90;;;;;;4991146;28;20057;-78
2022/12/19 06:05:35;;;;;;;40.65;20.13;;;3.10;99.90;;;;;;4990775;28;20441;-85
2022/12/19 06:08:01;;;;;;;38.15;19.60;;;3.10;99.90;;;;;;4990463;28;20149;-77
2022/12/19 06:10:27;;;;;;;37.25;18.88;;;3.10;99.90;;;;;;4989083;28;20497;-81
2022/12/19 06:12:52;;;;;;;36.65;18.90;;;3.10;99.90;;;;;;4990776;28;20046;-82
2022/12/19 06:15:18;;;;;;;41.88;19.63;;;3.20;99.90;;;;;;4989520;28;20039;-78
2022/12/19 06:17:44;;;;;;;37.90;19.95;;;3.30;99.90;;;;;;4990660;28;20099;-78
2022/12/19 06:20:09;;;;;;;34.50;17.05;;;3.20;99.90;;;;;;4990472;28;20058;-77
2022/12/19 06:22:35;;;;;;;36.20;18.13;;;3.40;99.90;;;;;;4989510;28;20442;-76
2022/12/19 06:25:01;;;;;;;34.50;17.30;;;3.30;99.90;;;;;;4991064;28;20216;-76
2022/12/19 06:27:26;;;;;;;33.03;17.17;;;3.40;99.90;;;;;;4990430;28;20053;-77
2022/12/19 06:29:52;;;;;;;33.00;17.63;;;3.40;99.90;;;;;;4989159;28;20046;-82
2022/12/19 06:32:18;;;;;;;32.08;18.00;;;3.50;99.90;;;;;;4990287;28;20064;-77
2022/12/19 06:34:43;;;;;;;28.73;15.77;;;3.50;99.90;;;;;;5021960;28;20166;-80
2022/12/19 06:37:10;;;;;;;29.58;16.15;;;3.50;99.90;;;;;;4988695;28;20050;-74
2022/12/19 06:39:36;;;;;;;30.27;15.65;;;3.60;99.90;;;;;;4990491;28;20072;-78
2022/12/19 06:44:46;;;;;;;27.55;15.68;;;3.70;99.90;;;;;;4990762;28;20054;-78
2022/12/19 06:47:11;;;;;;;29.80;15.80;;;4.60;99.90;;;;;;4990104;28;20408;-80
2022/12/19 06:49:37;;;;;;;27.83;15.93;;;3.70;99.90;;;;;;4990213;28;20050;-82
2022/12/19 06:52:03;;;;;;;28.35;15.88;;;3.70;99.90;;;;;;5019757;28;20055;-76
2022/12/19 06:54:28;;;;;;;29.30;15.57;;;3.70;99.90;;;;;;4990160;28;20107;-78
2022/12/19 06:56:54;;;;;;;28.70;15.30;;;3.70;99.90;;;;;;4990108;28;20052;-80
2022/12/19 06:59:20;;;;;;;26.48;15.88;;;3.80;99.90;;;;;;4990031;28;20053;-84
2022/12/19 07:02:10;;;;;;;26.38;14.48;;;3.80;99.90;;;;;;4990104;28;20400;-78
2022/12/19 07:04:41;;;;;;;22.75;13.63;;;3.80;99.90;;;;;;4989544;28;20819;-78
2022/12/19 07:07:07;;;;;;;24.80;14.82;;;3.80;99.90;;;;;;4989409;28;20513;-85
2022/12/19 07:09:33;;;;;;;25.40;14.25;;;4.50;99.90;;;;;;4988233;28;20050;-76
2022/12/19 07:12:00;;;;;;;25.33;14.55;;;3.80;99.90;;;;;;4990008;28;20046;-81
2022/12/19 07:14:25;;;;;;;24.27;14.20;;;3.90;99.90;;;;;;4989057;28;20035;-77
2022/12/19 07:16:52;;;;;;;25.95;14.85;;;3.90;99.90;;;;;;4989224;28;20420;-76
2022/12/19 07:19:20;;;;;;;28.20;14.60;;;4.60;99.90;;;;;;4989391;28;20065;-80
2022/12/19 07:21:46;;;;;;;24.90;14.80;;;3.90;99.90;;;;;;4989068;28;20492;-78
2022/12/19 07:24:13;;;;;;;26.45;14.60;;;3.90;99.90;;;;;;4987960;28;20050;-81
2022/12/19 07:26:41;;;;;;;28.30;15.48;;;3.90;99.90;;;;;;4989707;28;20057;-76
2022/12/19 07:29:08;;;;;;;24.02;14.27;;;3.90;99.90;;;;;;4989822;28;20058;-77
2022/12/19 07:31:33;;;;;;;27.63;15.05;;;4.50;99.90;;;;;;4989091;28;20113;-76
2022/12/19 07:33:59;;;;;;;24.58;14.30;;;4.00;99.90;;;;;;4989300;28;20460;-75
2022/12/19 07:36:24;;;;;;;24.08;13.57;;;4.00;99.90;;;;;;4988691;28;20054;-76
2022/12/19 07:38:50;;;;;;;24.40;13.52;;;4.00;99.90;;;;;;4989231;28;20046;-84
2022/12/19 07:41:17;;;;;;;26.65;14.00;;;4.00;99.90;;;;;;4989496;28;20057;-83
2022/12/19 07:43:44;;;;;;;23.15;12.60;;;4.10;99.90;;;;;;4987692;28;20058;-80
2022/12/19 07:46:10;;;;;;;22.25;13.27;;;4.10;99.90;;;;;;4989366;28;20081;-76
2022/12/19 07:48:36;;;;;;;22.50;12.73;;;4.20;99.90;;;;;;4989403;28;20091;-75
2022/12/19 07:51:04;;;;;;;25.52;14.50;;;4.20;99.90;;;;;;4988927;28;20038;-76
2022/12/19 07:53:30;;;;;;;25.58;13.48;;;4.20;99.90;;;;;;4988836;28;20579;-76
2022/12/19 07:55:56;;;;;;;22.95;13.43;;;4.20;99.90;;;;;;4989016;28;20046;-76
2022/12/19 07:58:22;;;;;;;22.77;12.77;;;4.30;99.90;;;;;;4987756;28;20049;-75
2022/12/19 08:00:55;;;;;;;21.90;12.63;;;4.30;99.90;;;;;;4988690;28;20053;-75
2022/12/19 08:03:21;;;;;;;24.52;13.52;;;4.40;99.90;;;;;;4987783;28;20515;-77
2022/12/19 08:05:47;;;;;;;21.23;12.60;;;4.70;99.90;;;;;;4988607;28;20046;-77
2022/12/19 08:08:12;;;;;;;23.52;13.43;;;4.40;99.90;;;;;;5060981;28;20565;-78
2022/12/19 08:10:38;;;;;;;23.35;12.80;;;4.40;99.90;;;;;;4987404;28;20099;-76
2022/12/19 08:13:04;;;;;;;22.05;12.88;;;4.50;99.90;;;;;;4988696;28;20088;-76
2022/12/19 08:15:30;;;;;;;24.08;13.20;;;4.50;99.90;;;;;;4988816;28;20557;-76
2022/12/19 08:17:55;;;;;;;21.50;12.88;;;4.50;99.90;;;;;;4987052;28;20042;-78
2022/12/19 08:20:21;;;;;;;22.60;12.25;;;4.60;99.90;;;;;;5040681;28;20854;-76
2022/12/19 08:22:47;;;;;;;20.13;11.93;;;4.60;99.90;;;;;;4988204;28;20054;-78
2022/12/19 08:25:12;;;;;;;18.23;11.30;;;4.70;99.90;;;;;;4988200;28;20052;-78
2022/12/19 08:27:38;;;;;;;21.38;12.50;;;4.70;99.90;;;;;;4988736;28;20121;-75
2022/12/19 08:30:04;;;;;;;22.30;12.45;;;4.70;99.90;;;;;;4988658;28;20097;-75
2022/12/19 08:32:30;;;;;;;20.10;12.75;;;4.80;99.90;;;;;;4988767;28;20138;-76
2022/12/19 08:34:56;;;;;;;21.77;12.38;;;4.80;99.90;;;;;;4988634;28;20568;-75
2022/12/19 08:37:21;;;;;;;20.35;12.95;;;4.80;99.90;;;;;;4988519;28;20089;-76
2022/12/19 08:39:47;;;;;;;21.48;11.73;;;4.90;99.90;;;;;;4987963;28;20046;-74
2022/12/19 08:42:13;;;;;;;21.77;12.50;;;4.80;99.90;;;;;;4987025;28;20455;-78
2022/12/19 08:44:38;;;;;;;22.40;12.80;;;4.90;99.90;;;;;;4988812;28;20454;-74
2022/12/19 08:47:04;;;;;;;21.77;12.82;;;4.90;99.90;;;;;;4987524;28;20049;-75
2022/12/19 08:49:30;;;;;;;21.95;12.68;;;4.90;99.90;;;;;;4988135;28;20045;-74
2022/12/19 08:51:55;;;;;;;24.27;13.63;;;5.00;99.90;;;;;;4987250;28;20397;-76
2022/12/19 08:54:21;;;;;;;23.52;13.30;;;5.10;99.90;;;;;;4987748;28;20123;-77
2022/12/19 08:56:47;;;;;;;21.17;12.45;;;5.10;99.90;;;;;;4988433;28;20153;-75
2022/12/19 08:59:13;;;;;;;18.83;12.02;;;5.10;99.90;;;;;;4988288;28;20080;-75
2022/12/19 09:01:39;;;;;;;22.10;13.68;;;5.20;99.90;;;;;;4987903;28;20046;-74
2022/12/19 09:04:05;;;;;;;21.45;12.90;;;5.30;99.90;;;;;;4987571;28;20038;-73
2022/12/19 09:06:31;;;;;;;21.55;11.90;;;5.30;99.90;;;;;;4987762;28;20099;-75
2022/12/19 09:08:56;;;;;;;19.83;11.63;;;5.20;99.90;;;;;;4987247;28;20103;-79
2022/12/19 09:11:24;;;;;;;22.00;13.32;;;5.30;99.90;;;;;;4988062;28;20137;-78
2022/12/19 09:13:50;;;;;;;19.65;12.82;;;5.40;99.90;;;;;;4988107;28;20386;-75
2022/12/19 09:16:21;;;;;;;20.77;12.35;;;5.40;99.90;;;;;;4986191;28;20050;-75
2022/12/19 09:18:49;;;;;;;23.17;14.35;;;5.40;99.90;;;;;;4987634;28;20042;-76
2022/12/19 09:21:17;;;;;;;20.52;13.15;;;5.40;99.90;;;;;;4987687;28;20146;-77
2022/12/19 09:23:48;;;;;;;21.42;12.98;;;5.50;99.90;;;;;;4985751;28;20062;-85
2022/12/19 09:26:14;;;;;;;22.15;13.68;;;5.50;99.90;;;;;;4987894;28;20050;-77
2022/12/19 09:28:40;;;;;;;22.05;13.20;;;5.50;99.90;;;;;;4987805;28;20053;-75
2022/12/19 09:31:10;;;;;;;22.48;13.18;;;5.60;99.90;;;;;;4987730;28;20076;-74
2022/12/19 09:33:36;;;;;;;21.92;14.23;;;5.60;99.90;;;;;;4987217;28;20039;-75
2022/12/19 09:36:02;;;;;;;22.45;14.50;;;5.60;99.90;;;;;;4968308;28;20138;-73
2022/12/19 09:38:29;;;;;;;23.17;14.48;;;5.70;99.90;;;;;;4996788;28;20553;-82
2022/12/19 09:41:01;;;;;;;27.08;15.40;;;5.70;99.90;;;;;;5002771;28;20045;-76
2022/12/19 09:43:45;;;;;;;24.38;16.02;;;5.70;99.90;;;;;;5018963;28;20478;-76
2022/12/19 09:46:15;;;;;;;23.52;15.20;;;5.70;99.90;;;;;;5038652;28;20057;-76
2022/12/19 09:48:41;;;;;;;22.20;15.23;;;5.80;99.90;;;;;;4987858;28;20427;-75
2022/12/19 09:51:21;;;;;;;26.58;15.35;;;5.80;99.90;;;;;;4987330;28;20054;-77
2022/12/19 09:54:09;;;;;;;25.75;15.05;;;5.90;99.90;;;;;;4987506;28;20099;-75
2022/12/19 09:56:39;;;;;;;27.88;17.23;;;6.00;99.90;;;;;;4987280;28;20056;-75
2022/12/19 09:59:20;;;;;;;24.73;15.35;;;6.00;99.90;;;;;;5088959;28;20048;-76
2022/12/19 10:02:00;;;;;;;24.42;14.85;;;6.00;99.90;;;;;;5089858;28;20067;-76
2022/12/19 10:04:28;;;;;;;23.20;14.50;;;6.80;99.90;;;;;;5089887;28;20056;-77
2022/12/19 10:06:54;;;;;;;25.15;15.60;;;6.10;99.90;;;;;;5049983;28;20042;-75
2022/12/19 10:09:33;;;;;;;25.15;15.43;;;6.10;99.90;;;;;;5018635;28;20054;-76
2022/12/19 10:12:23;;;;;;;25.52;15.70;;;6.20;99.90;;;;;;4987650;28;20038;-76
2022/12/19 10:15:09;;;;;;;22.73;15.02;;;6.30;99.90;;;;;;4987745;28;20046;-76
2022/12/19 10:18:00;;;;;;;24.50;15.43;;;6.30;99.90;;;;;;4987597;28;20510;-76
2022/12/19 10:20:37;;;;;;;21.08;14.40;;;6.30;99.90;;;;;;4985739;28;20049;-76
2022/12/19 10:23:36;;;;;;;24.70;15.25;;;6.40;99.90;;;;;;4990737;28;20058;-78
2022/12/19 10:26:16;;;;;;;25.05;14.82;;;6.30;99.90;;;;;;4989949;28;20461;-77
2022/12/19 10:28:44;;;;;;;23.27;14.65;;;6.40;99.90;;;;;;5015555;28;20044;-81
2022/12/19 10:32:00;;;;;;;24.33;14.57;;;6.50;99.90;;;;;;5057902;28;20439;-75
2022/12/19 10:34:39;;;;;;;24.27;14.75;;;6.50;99.90;;;;;;4969138;28;20100;-76
2022/12/19 10:37:22;;;;;;;27.50;15.70;;;6.60;99.90;;;;;;4969009;28;20093;-78
2022/12/19 10:40:10;;;;;;;22.92;14.65;;;6.60;99.90;;;;;;4968267;28;20096;-76
2022/12/19 10:42:48;;;;;;;23.25;13.82;;;6.70;99.90;;;;;;4968353;28;20130;-76
2022/12/19 10:45:17;;;;;;;25.02;13.45;;;6.70;99.90;;;;;;4968303;28;20201;-75
2022/12/19 10:47:46;;;;;;;21.40;12.65;;;6.80;99.90;;;;;;4984734;28;20082;-77
2022/12/19 10:50:16;;;;;;;22.33;14.18;;;6.80;99.90;;;;;;4968292;28;20055;-77
2022/12/19 10:53:11;;;;;;;20.48;13.35;;;6.90;99.90;;;;;;4966235;28;20047;-75
2022/12/19 10:55:48;;;;;;;19.63;12.32;;;6.90;99.90;;;;;;4964521;28;20086;-77
2022/12/19 10:58:20;;;;;;;19.98;12.88;;;7.00;99.90;;;;;;4968068;28;20058;-75
2022/12/19 11:01:13;;;;;;;20.17;12.50;;;7.60;99.90;;;;;;5036384;28;20140;-77
2022/12/19 11:03:41;;;;;;;17.67;12.07;;;8.20;99.90;;;;;;4959832;28;20093;-75
2022/12/19 11:06:35;;;;;;;19.00;13.18;;;7.10;99.90;;;;;;4966216;28;20131;-77
2022/12/19 11:09:18;;;;;;;19.15;11.15;;;7.10;99.90;;;;;;4960441;28;20526;-76
2022/12/19 11:11:55;;;;;;;20.35;12.15;;;7.20;99.90;;;;;;4970457;28;20106;-75
2022/12/19 11:14:25;;;;;;;17.17;10.48;;;7.20;99.90;;;;;;4975895;28;20058;-74
2022/12/19 11:16:50;;;;;;;16.45;11.82;;;7.30;99.90;;;;;;4989582;28;20451;-76
2022/12/19 11:19:31;;;;;;;15.80;11.20;;;7.30;99.90;;;;;;4988278;28;20046;-76
2022/12/19 11:22:01;;;;;;;16.70;11.95;;;7.40;99.90;;;;;;4989340;28;20054;-74
2022/12/19 11:24:34;;;;;;;17.52;11.25;;;7.80;99.90;;;;;;4989400;28;20184;-76
2022/12/19 11:27:00;;;;;;;17.42;11.73;;;7.50;99.90;;;;;;4989298;28;20042;-74
2022/12/19 11:29:45;;;;;;;15.77;11.00;;;7.50;99.90;;;;;;4989437;28;20038;-75
2022/12/19 11:32:27;;;;;;;16.80;10.63;;;7.50;99.90;;;;;;4989307;28;20050;-78
2022/12/19 11:35:00;;;;;;;20.70;10.68;;;7.50;99.90;;;;;;4989203;28;20405;-76
2022/12/19 11:37:39;;;;;;;15.57;10.90;;;8.10;99.90;;;;;;5074990;28;20372;-74
2022/12/19 11:40:32;;;;;;;13.52;9.63;;;7.50;99.90;;;;;;5090263;28;20487;-75
2022/12/19 11:43:14;;;;;;;16.40;10.57;;;7.50;99.90;;;;;;5091603;28;20116;-74
2022/12/19 11:46:04;;;;;;;15.23;10.20;;;7.50;99.90;;;;;;5080017;28;20124;-75
2022/12/19 11:48:43;;;;;;;13.15;9.60;;;7.60;99.90;;;;;;4987696;28;20070;-75
2022/12/19 11:51:21;;;;;;;14.90;10.55;;;7.60;99.90;;;;;;4989147;28;20135;-74
2022/12/19 11:53:58;;;;;;;16.73;10.68;;;7.90;99.90;;;;;;4987033;28;20061;-74
2022/12/19 11:56:26;;;;;;;14.63;9.75;;;7.70;99.90;;;;;;4987507;28;20176;-74
2022/12/19 11:59:06;;;;;;;14.10;9.55;;;7.60;99.90;;;;;;4987500;28;20054;-73
2022/12/19 12:01:45;;;;;;;18.05;10.23;;;7.70;99.90;;;;;;4987849;28;20054;-73
2022/12/19 12:04:45;;;;;;;14.52;10.27;;;7.70;99.90;;;;;;4987819;28;20131;-73
2022/12/19 12:07:12;;;;;;;14.10;9.40;;;7.70;99.90;;;;;;4988875;28;20042;-74
2022/12/19 12:09:56;;;;;;;15.30;10.60;;;8.30;99.90;;;;;;4987022;28;20062;-73
2022/12/19 12:12:56;;;;;;;13.85;9.70;;;7.80;99.90;;;;;;4969223;28;20046;-75
2022/12/19 12:16:03;;;;;;;15.20;9.00;;;7.90;99.90;;;;;;4969345;28;20078;-76
2022/12/19 12:19:06;;;;;;;12.18;8.57;;;7.90;99.90;;;;;;5028111;28;20184;-73
2022/12/19 12:21:36;;;;;;;13.63;8.75;;;8.00;99.90;;;;;;5040737;28;20164;-74
2022/12/19 12:24:20;;;;;;;14.50;9.25;;;7.90;99.90;;;;;;5048160;28;20061;-74
2022/12/19 12:26:53;;;;;;;12.47;9.00;;;8.00;99.90;;;;;;5031431;28;20061;-82
2022/12/19 12:30:00;;;;;;;12.38;8.73;;;7.90;99.90;;;;;;5031436;28;20065;-75
2022/12/19 12:32:46;;;;;;;16.15;8.88;;;7.90;99.90;;;;;;5007952;28;20413;-76
2022/12/19 12:35:22;;;;;;;13.80;9.45;;;8.00;99.90;;;;;;5008110;28;20148;-74
2022/12/19 12:38:15;;;;;;;15.30;9.57;;;8.00;99.90;;;;;;5008433;28;20511;-75
2022/12/19 12:40:59;;;;;;;13.68;9.00;;;8.00;99.90;;;;;;4999193;28;20077;-74
2022/12/19 12:43:41;;;;;;;13.60;8.48;;;7.90;99.90;;;;;;4991246;28;20046;-74
2022/12/19 12:46:17;;;;;;;16.40;8.05;;;7.90;99.90;;;;;;5007660;28;20141;-75
2022/12/19 12:49:04;;;;;;;14.73;7.70;;;8.00;99.90;;;;;;5007916;28;20050;-74
2022/12/19 12:51:32;;;;;;;13.82;7.90;;;8.00;99.90;;;;;;5008018;28;20401;-74
2022/12/19 12:54:06;;;;;;;12.48;8.05;;;8.00;99.90;;;;;;4971208;28;20059;-74
2022/12/19 12:56:33;;;;;;;13.43;9.18;;;8.10;99.90;;;;;;4957138;28;20059;-73
2022/12/19 12:59:25;;;;;;;13.85;9.18;;;8.00;99.90;;;;;;4965839;28;20100;-73
2022/12/19 13:01:59;;;;;;;13.25;8.27;;;8.00;99.90;;;;;;4965970;28;20061;-74
2022/12/19 13:04:34;;;;;;;12.73;7.45;;;8.00;99.90;;;;;;4965951;28;20073;-76